createdAt,value
2018-05-06T00:00:59.476Z,2.07
2018-05-06T00:03:27.904Z,1.90
2018-05-06T00:05:56.374Z,1.67
2018-05-06T00:08:24.796Z,2.00
2018-05-06T00:10:53.213Z,1.80
2018-05-06T00:13:21.685Z,2.10
2018-05-06T00:15:50.105Z,2.03
2018-05-06T00:18:18.520Z,1.93
2018-05-06T00:20:46.996Z,1.70
2018-05-06T00:23:15.437Z,1.60
2018-05-06T00:25:43.868Z,1.80
2018-05-06T00:28:12.335Z,2.00
2018-05-06T00:30:40.752Z,1.87
2018-05-06T00:33:09.184Z,1.80
2018-05-06T00:35:37.660Z,1.97
2018-05-06T00:38:06.089Z,1.77
2018-05-06T00:40:34.535Z,1.70
2018-05-06T00:43:03.039Z,1.60
2018-05-06T00:45:31.455Z,2.10
2018-05-06T00:47:59.864Z,2.00
2018-05-06T00:50:28.316Z,1.70
2018-05-06T00:52:56.739Z,2.13
2018-05-06T00:55:25.165Z,2.00
2018-05-06T00:57:53.632Z,1.90
2018-05-06T01:00:22.070Z,2.30
2018-05-06T01:02:50.496Z,2.30
2018-05-06T01:05:18.981Z,2.00
2018-05-06T01:07:47.405Z,2.80
2018-05-06T01:10:15.819Z,2.00
2018-05-06T01:12:44.276Z,2.20
2018-05-06T01:15:12.696Z,2.00
2018-05-06T01:17:41.124Z,2.10
2018-05-06T01:20:09.601Z,2.23
2018-05-06T01:22:38.032Z,2.40
2018-05-06T01:25:06.472Z,2.33
2018-05-06T01:27:34.940Z,2.53
2018-05-06T01:30:03.430Z,2.20
2018-05-06T01:32:31.890Z,2.30
2018-05-06T01:35:00.362Z,2.20
2018-05-06T01:37:28.799Z,2.80
2018-05-06T01:39:57.257Z,2.50
2018-05-06T01:42:25.744Z,2.23
2018-05-06T01:44:54.171Z,2.50
2018-05-06T01:47:22.592Z,2.27
2018-05-06T01:49:51.082Z,2.10
2018-05-06T01:52:19.502Z,2.07
2018-05-06T01:54:47.935Z,2.10
2018-05-06T01:57:16.412Z,2.17
2018-05-06T01:59:44.836Z,2.07
2018-05-06T02:02:13.256Z,2.37
2018-05-06T02:04:41.731Z,2.00
2018-05-06T02:07:10.187Z,2.70
2018-05-06T02:09:38.633Z,2.33
2018-05-06T02:12:07.117Z,2.27
2018-05-06T02:14:35.549Z,2.10
2018-05-06T02:17:03.977Z,2.23
2018-05-06T02:19:32.469Z,2.50
2018-05-06T02:22:00.889Z,2.30
2018-05-06T02:24:29.297Z,2.00
2018-05-06T02:26:57.752Z,2.60
2018-05-06T02:29:26.164Z,2.87
2018-05-06T02:31:54.616Z,2.53
2018-05-06T02:34:23.104Z,2.40
2018-05-06T02:36:51.523Z,2.50
2018-05-06T02:39:19.956Z,2.07
2018-05-06T02:41:48.427Z,2.40
2018-05-06T02:44:16.860Z,2.43
2018-05-06T02:46:45.272Z,2.50
2018-05-06T02:49:13.768Z,3.13
2018-05-06T02:51:42.184Z,2.80
2018-05-06T02:54:10.930Z,2.60
2018-05-06T02:56:39.461Z,2.80
2018-05-06T02:59:07.897Z,2.50
2018-05-06T03:01:36.344Z,2.73
2018-05-06T03:04:04.810Z,3.13
2018-05-06T03:06:33.232Z,2.93
2018-05-06T03:09:01.670Z,3.00
2018-05-06T03:11:30.124Z,3.17
2018-05-06T03:13:58.562Z,2.83
2018-05-06T03:16:26.996Z,3.07
2018-05-06T03:18:55.456Z,3.00
2018-05-06T03:21:23.869Z,3.17
2018-05-06T03:23:52.297Z,3.20
2018-05-06T03:26:20.776Z,2.90
2018-05-06T03:28:49.188Z,2.73
2018-05-06T03:31:17.603Z,3.53
2018-05-06T03:33:46.073Z,3.30
2018-05-06T03:36:14.504Z,3.57
2018-05-06T03:38:42.964Z,3.90
2018-05-06T03:41:11.429Z,4.00
2018-05-06T03:43:39.885Z,3.70
2018-05-06T03:46:08.299Z,3.40
2018-05-06T03:48:36.783Z,4.00
2018-05-06T03:51:05.208Z,3.50
2018-05-06T03:53:33.640Z,3.90
2018-05-06T03:59:28.780Z,3.50
2018-05-06T04:04:57.065Z,3.97
2018-05-06T04:07:25.532Z,3.87
2018-05-06T04:09:53.968Z,4.00
2018-05-06T04:12:22.391Z,3.80
2018-05-06T04:14:50.866Z,3.70
2018-05-06T04:17:19.308Z,3.70
2018-05-06T04:19:47.716Z,3.60
2018-05-06T04:22:16.163Z,3.73
2018-05-06T04:24:44.585Z,3.70
2018-05-06T04:27:13.041Z,3.73
2018-05-06T04:29:41.532Z,3.90
2018-05-06T04:32:09.943Z,3.57
2018-05-06T04:34:38.356Z,3.53
2018-05-06T04:37:06.815Z,3.60
2018-05-06T04:39:35.244Z,3.47
2018-05-06T04:42:03.681Z,3.63
2018-05-06T04:44:32.144Z,4.10
2018-05-06T04:47:00.572Z,3.70
2018-05-06T04:49:28.993Z,3.93
2018-05-06T04:51:57.457Z,3.87
2018-05-06T04:54:25.871Z,3.50
2018-05-06T04:56:54.280Z,4.00
2018-05-06T04:59:22.732Z,3.80
2018-05-06T05:01:51.139Z,3.87
2018-05-06T05:04:19.554Z,3.40
2018-05-06T05:06:48.004Z,3.50
2018-05-06T05:09:16.429Z,3.40
2018-05-06T05:11:44.848Z,3.73
2018-05-06T05:14:13.317Z,3.70
2018-05-06T05:16:41.736Z,3.60
2018-05-06T05:19:10.161Z,3.87
2018-05-06T05:21:38.721Z,3.30
2018-05-06T05:24:07.143Z,3.53
2018-05-06T05:26:35.588Z,3.23
2018-05-06T05:29:04.112Z,3.50
2018-05-06T05:31:32.524Z,3.37
2018-05-06T05:34:00.965Z,3.73
2018-05-06T05:36:29.416Z,3.53
2018-05-06T05:38:57.852Z,3.60
2018-05-06T05:41:26.272Z,3.60
2018-05-06T05:43:54.747Z,3.60
2018-05-06T05:46:23.173Z,3.87
2018-05-06T05:48:51.580Z,4.00
2018-05-06T05:51:20.032Z,3.80
2018-05-06T05:53:48.464Z,4.23
2018-05-06T05:56:16.881Z,3.23
2018-05-06T05:58:45.348Z,4.10
2018-05-06T06:01:13.764Z,3.70
2018-05-06T06:03:42.196Z,3.57
2018-05-06T06:06:10.676Z,3.20
2018-05-06T06:08:39.108Z,3.43
2018-05-06T06:11:07.536Z,3.73
2018-05-06T06:13:35.992Z,4.07
2018-05-06T06:16:04.420Z,3.87
2018-05-06T06:18:32.851Z,3.90
2018-05-06T06:21:01.336Z,4.10
2018-05-06T06:23:29.753Z,4.33
2018-05-06T06:25:58.174Z,4.00
2018-05-06T06:28:26.639Z,4.03
2018-05-06T06:30:55.053Z,4.07
2018-05-06T06:33:23.512Z,4.83
2018-05-06T06:35:51.977Z,4.17
2018-05-06T06:38:20.450Z,4.43
2018-05-06T06:40:48.878Z,4.30
2018-05-06T06:43:17.331Z,4.60
2018-05-06T06:45:45.755Z,4.27
2018-05-06T06:48:14.168Z,4.20
2018-05-06T06:50:42.648Z,4.20
2018-05-06T06:53:11.064Z,3.60
2018-05-06T06:55:39.564Z,3.63
2018-05-06T06:58:08.008Z,3.93
2018-05-06T07:00:36.439Z,3.77
2018-05-06T07:03:05.382Z,3.53
2018-05-06T07:05:33.836Z,3.53
2018-05-06T07:08:02.248Z,3.33
2018-05-06T07:10:30.665Z,3.57
2018-05-06T07:12:59.156Z,3.60
2018-05-06T07:15:27.569Z,3.90
2018-05-06T07:17:55.988Z,3.60
2018-05-06T07:20:24.433Z,3.90
2018-05-06T07:22:52.864Z,3.53
2018-05-06T07:25:21.276Z,3.33
2018-05-06T07:27:49.737Z,3.10
2018-05-06T07:30:18.169Z,3.40
2018-05-06T07:32:46.600Z,3.17
2018-05-06T07:35:15.065Z,3.67
2018-05-06T07:37:43.498Z,3.67
2018-05-06T07:40:11.913Z,3.40
2018-05-06T07:42:40.402Z,3.33
2018-05-06T07:45:08.816Z,3.80
2018-05-06T07:47:37.236Z,3.50
2018-05-06T07:50:05.747Z,3.70
2018-05-06T07:52:34.167Z,3.70
2018-05-06T07:55:02.584Z,3.30
2018-05-06T07:57:31.040Z,3.63
2018-05-06T07:59:59.476Z,3.20
2018-05-06T08:02:27.908Z,4.00
2018-05-06T08:04:56.380Z,3.57
2018-05-06T08:07:24.825Z,3.17
2018-05-06T08:09:53.258Z,4.00
2018-05-06T08:12:21.730Z,3.40
2018-05-06T08:14:50.144Z,3.10
2018-05-06T08:17:18.592Z,2.80
2018-05-06T08:19:47.085Z,3.00
2018-05-06T08:22:15.498Z,2.87
2018-05-06T08:24:43.919Z,3.40
2018-05-06T08:27:12.386Z,2.57
2018-05-06T08:29:40.837Z,2.70
2018-05-06T08:32:09.250Z,2.63
2018-05-06T08:34:37.719Z,3.17
2018-05-06T08:37:06.148Z,2.50
2018-05-06T08:39:34.564Z,2.70
2018-05-06T08:42:03.024Z,2.73
2018-05-06T08:44:31.448Z,2.50
2018-05-06T08:46:59.878Z,2.40
2018-05-06T08:49:28.342Z,2.40
2018-05-06T08:51:56.759Z,2.37
2018-05-06T08:54:25.205Z,2.30
2018-05-06T08:56:53.929Z,2.27
2018-05-06T08:59:22.364Z,1.93
2018-05-06T09:01:50.788Z,2.27
2018-05-06T09:04:19.288Z,2.07
2018-05-06T09:06:47.708Z,2.37
2018-05-06T09:09:16.126Z,2.30
2018-05-06T09:11:44.583Z,1.90
2018-05-06T09:14:13.015Z,1.67
2018-05-06T09:16:41.430Z,2.30
2018-05-06T09:19:09.884Z,1.97
2018-05-06T09:21:38.299Z,1.70
2018-05-06T09:24:06.725Z,2.23
2018-05-06T09:26:35.187Z,2.10
2018-05-06T09:29:03.633Z,2.20
2018-05-06T09:31:32.040Z,2.00
2018-05-06T09:34:00.529Z,1.90
2018-05-06T09:36:28.944Z,2.13
2018-05-06T09:38:57.368Z,2.17
2018-05-06T09:41:25.837Z,2.00
2018-05-06T09:43:54.255Z,1.90
2018-05-06T09:46:22.675Z,1.97
2018-05-06T09:48:51.327Z,2.23
2018-05-06T09:51:19.764Z,2.43
2018-05-06T09:53:48.254Z,2.00
2018-05-06T09:56:17.879Z,1.70
2018-05-06T09:58:46.306Z,1.87
2018-05-06T10:01:14.724Z,2.00
2018-05-06T10:03:43.216Z,1.70
2018-05-06T10:06:11.628Z,2.20
2018-05-06T10:08:40.051Z,1.90
2018-05-06T10:11:08.540Z,1.53
2018-05-06T10:13:36.952Z,1.73
2018-05-06T10:16:05.390Z,1.80
2018-05-06T10:18:33.881Z,1.50
2018-05-06T10:21:02.353Z,1.83
2018-05-06T10:23:30.773Z,1.80
2018-05-06T10:25:59.232Z,1.60
2018-05-06T10:28:27.657Z,1.50
2018-05-06T10:30:56.084Z,2.03
2018-05-06T10:33:24.574Z,1.40
2018-05-06T10:35:52.988Z,1.80
2018-05-06T10:38:21.462Z,1.33
2018-05-06T10:40:50.313Z,1.87
2018-05-06T10:43:18.730Z,1.50
2018-05-06T10:45:47.188Z,1.50
2018-05-06T10:48:15.648Z,1.30
2018-05-06T10:50:44.070Z,1.30
2018-05-06T10:53:12.492Z,1.30
2018-05-06T10:55:40.972Z,1.57
2018-05-06T10:58:09.381Z,1.50
2018-05-06T11:00:37.793Z,1.47
2018-05-06T11:03:06.276Z,1.40
2018-05-06T11:05:34.693Z,1.70
2018-05-06T11:08:03.134Z,1.50
2018-05-06T11:10:31.638Z,1.43
2018-05-06T11:13:00.053Z,1.60
2018-05-06T11:15:28.495Z,1.73
2018-05-06T11:17:56.964Z,1.57
2018-05-06T11:20:25.416Z,1.50
2018-05-06T11:22:53.853Z,1.90
2018-05-06T11:25:22.341Z,1.80
2018-05-06T11:27:50.787Z,1.87
2018-05-06T11:30:19.211Z,1.70
2018-05-06T11:32:47.713Z,1.50
2018-05-06T11:35:16.173Z,1.60
2018-05-06T11:37:44.588Z,1.63
2018-05-06T11:40:13.051Z,1.60
2018-05-06T11:42:41.469Z,1.63
2018-05-06T11:45:09.908Z,1.70
2018-05-06T11:47:38.388Z,1.50
2018-05-06T11:50:06.811Z,1.70
2018-05-06T11:52:35.220Z,1.33
2018-05-06T11:55:03.695Z,1.27
2018-05-06T11:57:32.114Z,1.50
2018-05-06T12:00:00.532Z,1.50
2018-05-06T12:02:29.077Z,1.47
2018-05-06T12:04:57.500Z,1.20
2018-05-06T12:07:25.921Z,1.30
2018-05-06T12:09:54.472Z,1.33
2018-05-06T12:12:22.857Z,1.20
2018-05-06T12:14:51.276Z,1.00
2018-05-06T12:17:19.760Z,1.03
2018-05-06T12:19:48.180Z,1.07
2018-05-06T12:22:16.599Z,1.10
2018-05-06T12:24:45.077Z,1.10
2018-05-06T12:27:13.627Z,1.33
2018-05-06T12:29:42.054Z,1.13
2018-05-06T12:32:10.547Z,0.93
2018-05-06T12:34:38.976Z,1.23
2018-05-06T12:37:07.405Z,1.30
2018-05-06T12:39:35.872Z,1.20
2018-05-06T12:42:04.320Z,1.10
2018-05-06T12:44:32.745Z,1.10
2018-05-06T12:47:01.235Z,1.17
2018-05-06T12:49:29.731Z,1.23
2018-05-06T12:51:58.128Z,1.10
2018-05-06T12:54:26.608Z,1.20
2018-05-06T12:56:55.036Z,1.00
2018-05-06T12:59:23.456Z,1.20
2018-05-06T13:01:51.919Z,1.50
2018-05-06T13:04:20.338Z,0.82
2018-05-06T13:06:48.775Z,1.20
2018-05-06T13:09:17.252Z,1.02
2018-05-06T13:11:45.695Z,0.90
2018-05-06T13:14:14.140Z,1.20
2018-05-06T13:16:42.663Z,1.20
2018-05-06T13:19:11.052Z,1.00
2018-05-06T13:21:39.466Z,1.40
2018-05-06T13:24:08.020Z,1.10
2018-05-06T13:26:36.428Z,1.17
2018-05-06T13:29:04.881Z,1.62
2018-05-06T13:31:33.383Z,1.40
2018-05-06T13:34:01.846Z,1.37
2018-05-06T13:36:30.290Z,1.50
2018-05-06T13:38:58.800Z,1.40
2018-05-06T13:41:27.273Z,1.40
2018-05-06T13:43:55.776Z,1.50
2018-05-06T13:46:24.249Z,2.28
2018-05-06T13:48:52.678Z,1.37
2018-05-06T13:51:21.136Z,1.73
2018-05-06T13:53:49.628Z,1.70
2018-05-06T13:56:18.052Z,1.00
2018-05-06T13:58:46.524Z,1.50
2018-05-06T14:01:14.976Z,1.50
2018-05-06T14:03:43.393Z,1.55
2018-05-06T14:06:11.853Z,1.87
2018-05-06T14:08:40.315Z,1.87
2018-05-06T14:11:08.740Z,1.92
2018-05-06T14:13:37.165Z,1.50
2018-05-06T14:16:05.621Z,1.83
2018-05-06T14:18:34.078Z,1.62
2018-05-06T14:21:02.823Z,1.50
2018-05-06T14:23:31.302Z,1.27
2018-05-06T14:25:59.787Z,1.50
2018-05-06T14:28:28.225Z,1.50
2018-05-06T14:30:56.722Z,1.40
2018-05-06T14:33:25.154Z,1.70
2018-05-06T14:35:53.573Z,1.60
2018-05-06T14:38:22.036Z,1.57
2018-05-06T14:40:50.500Z,1.50
2018-05-06T14:43:18.923Z,1.67
2018-05-06T14:45:47.421Z,1.30
2018-05-06T14:48:15.894Z,1.43
2018-05-06T14:50:44.305Z,1.57
2018-05-06T14:53:12.800Z,1.13
2018-05-06T14:55:41.225Z,1.63
2018-05-06T14:58:09.672Z,1.43
2018-05-06T15:00:38.156Z,1.57
2018-05-06T15:03:06.613Z,1.93
2018-05-06T15:05:35.040Z,1.50
2018-05-06T15:08:03.520Z,1.63
2018-05-06T15:10:32.069Z,1.70
2018-05-06T15:13:00.429Z,1.30
2018-05-06T15:15:28.899Z,1.67
2018-05-06T15:17:57.317Z,1.47
2018-05-06T15:20:25.737Z,2.10
2018-05-06T15:22:54.210Z,1.77
2018-05-06T15:25:22.641Z,1.60
2018-05-06T15:27:51.065Z,1.63
2018-05-06T15:30:19.520Z,1.33
2018-05-06T15:32:47.956Z,1.37
2018-05-06T15:35:16.396Z,1.47
2018-05-06T15:37:44.886Z,1.60
2018-05-06T15:40:13.312Z,1.47
2018-05-06T15:42:41.733Z,1.37
2018-05-06T15:45:10.217Z,1.67
2018-05-06T15:47:38.656Z,1.47
2018-05-06T15:50:07.429Z,1.33
2018-05-06T15:52:35.965Z,1.50
2018-05-06T15:55:04.348Z,1.67
2018-05-06T15:57:32.796Z,1.50
2018-05-06T16:00:01.337Z,1.60
2018-05-06T16:05:30.554Z,1.47
2018-05-06T16:07:58.968Z,1.40
2018-05-06T16:10:27.384Z,1.70
2018-05-06T16:12:55.852Z,1.40
2018-05-06T16:15:24.316Z,1.83
2018-05-06T16:17:52.761Z,2.03
2018-05-06T16:20:21.213Z,3.87
2018-05-06T16:22:49.643Z,3.20
2018-05-06T16:25:18.072Z,2.07
2018-05-06T16:27:46.532Z,2.17
2018-05-06T16:30:14.958Z,1.40
2018-05-06T16:32:43.388Z,1.50
2018-05-06T16:35:11.865Z,1.57
2018-05-06T16:37:40.289Z,1.50
2018-05-06T16:40:08.729Z,1.47
2018-05-06T16:42:37.232Z,1.53
2018-05-06T16:45:05.721Z,1.30
2018-05-06T16:47:34.160Z,1.70
2018-05-06T16:50:02.641Z,1.60
2018-05-06T16:52:31.105Z,1.47
2018-05-06T16:54:59.545Z,1.70
2018-05-06T16:57:28.139Z,1.40
2018-05-06T16:59:56.505Z,1.40
2018-05-06T17:02:24.960Z,1.30
2018-05-06T17:04:53.484Z,1.27
2018-05-06T17:07:21.917Z,1.43
2018-05-06T17:09:50.351Z,1.23
2018-05-06T17:12:18.816Z,1.20
2018-05-06T17:14:47.235Z,1.30
2018-05-06T17:17:15.672Z,1.23
2018-05-06T17:19:44.197Z,1.10
2018-05-06T17:22:12.646Z,1.43
2018-05-06T17:24:41.074Z,1.43
2018-05-06T17:27:09.529Z,1.30
2018-05-06T17:29:37.952Z,1.23
2018-05-06T17:32:06.406Z,1.47
2018-05-06T17:34:34.872Z,1.27
2018-05-06T17:37:03.304Z,1.30
2018-05-06T17:39:31.752Z,1.20
2018-05-06T17:42:00.269Z,1.20
2018-05-06T17:44:28.699Z,1.10
2018-05-06T17:46:57.164Z,1.40
2018-05-06T17:49:25.636Z,1.20
2018-05-06T17:51:54.064Z,1.13
2018-05-06T17:54:22.509Z,1.43
2018-05-06T17:56:51.012Z,1.20
2018-05-06T17:59:19.468Z,1.40
2018-05-06T18:01:47.908Z,1.20
2018-05-06T18:04:16.420Z,1.17
2018-05-06T18:06:44.838Z,1.20
2018-05-06T18:09:13.268Z,1.23
2018-05-06T18:11:41.736Z,1.13
2018-05-06T18:14:10.156Z,1.20
2018-05-06T18:16:38.608Z,1.40
2018-05-06T18:19:07.117Z,1.50
2018-05-06T18:21:35.554Z,1.30
2018-05-06T18:24:04.000Z,1.00
2018-05-06T18:26:32.479Z,1.20
2018-05-06T18:29:00.919Z,1.10
2018-05-06T18:31:29.362Z,1.43
2018-05-06T18:33:57.857Z,1.13
2018-05-06T18:36:26.327Z,1.47
2018-05-06T18:38:55.931Z,1.23
2018-05-06T18:41:24.412Z,1.70
2018-05-06T18:43:52.832Z,1.60
2018-05-06T18:46:21.313Z,1.70
2018-05-06T18:48:49.773Z,1.40
2018-05-06T18:51:18.526Z,1.40
2018-05-06T18:53:46.933Z,1.47
2018-05-06T18:56:15.409Z,1.67
2018-05-06T18:58:43.828Z,1.77
2018-05-06T19:01:12.258Z,1.60
2018-05-06T19:03:40.725Z,1.60
2018-05-06T19:06:09.142Z,1.60
2018-05-06T19:08:37.581Z,1.57
2018-05-06T19:11:06.067Z,1.70
2018-05-06T19:13:34.506Z,1.80
2018-05-06T19:16:02.932Z,1.60
2018-05-06T19:18:31.396Z,1.40
2018-05-06T19:20:59.845Z,1.53
2018-05-06T19:23:28.268Z,1.50
2018-05-06T19:25:56.729Z,1.50
2018-05-06T19:28:26.114Z,1.63
2018-05-06T19:30:55.614Z,1.83
2018-05-06T19:33:24.096Z,1.60
2018-05-06T19:35:52.540Z,1.60
2018-05-06T19:38:20.956Z,1.60
2018-05-06T19:40:49.458Z,1.50
2018-05-06T19:43:17.875Z,1.70
2018-05-06T19:45:46.280Z,1.50
2018-05-06T19:48:14.733Z,1.60
2018-05-06T19:50:43.148Z,2.10
2018-05-06T19:53:11.578Z,1.80
2018-05-06T19:55:40.035Z,1.90
2018-05-06T19:58:08.512Z,1.60
2018-05-06T20:00:36.999Z,1.53
2018-05-06T20:03:05.476Z,1.80
2018-05-06T20:05:33.922Z,1.90
2018-05-06T20:08:02.344Z,1.90
2018-05-06T20:10:30.812Z,2.00
2018-05-06T20:12:59.300Z,1.70
2018-05-06T20:15:28.061Z,1.67
2018-05-06T20:17:56.533Z,1.57
2018-05-06T20:20:24.949Z,1.93
2018-05-06T20:22:53.396Z,1.90
2018-05-06T20:25:21.915Z,1.80
2018-05-06T20:27:50.332Z,1.60
2018-05-06T20:30:18.740Z,1.73
2018-05-06T20:32:47.212Z,1.60
2018-05-06T20:35:15.641Z,1.70
2018-05-06T20:37:44.069Z,1.70
2018-05-06T20:40:12.524Z,1.63
2018-05-06T20:42:40.935Z,1.70
2018-05-06T20:45:09.353Z,1.73
2018-05-06T20:47:37.815Z,1.80
2018-05-06T20:50:06.232Z,1.77
2018-05-06T20:52:34.650Z,1.47
2018-05-06T20:55:03.132Z,1.67
2018-05-06T20:57:31.554Z,1.63
2018-05-06T21:00:00.035Z,1.47
2018-05-06T21:02:28.504Z,1.70
2018-05-06T21:04:56.921Z,1.57
2018-05-06T21:07:25.348Z,1.97
2018-05-06T21:09:53.828Z,1.70
2018-05-06T21:12:22.246Z,1.90
2018-05-06T21:14:50.672Z,1.80
2018-05-06T21:17:19.131Z,1.90
2018-05-06T21:19:47.553Z,1.63
2018-05-06T21:22:15.970Z,1.80
2018-05-06T21:24:44.430Z,1.80
2018-05-06T21:27:12.880Z,1.80
2018-05-06T21:29:41.330Z,1.40
2018-05-06T21:32:09.829Z,1.87
2018-05-06T21:34:38.256Z,1.83
2018-05-06T21:37:06.765Z,1.67
2018-05-06T21:39:35.193Z,1.90
2018-05-06T21:42:03.613Z,1.87
2018-05-06T21:44:32.028Z,1.73
2018-05-06T21:47:00.517Z,1.77
2018-05-06T21:49:28.936Z,1.70
2018-05-06T21:51:57.352Z,1.80
2018-05-06T21:54:25.846Z,1.60
2018-05-06T21:56:54.254Z,1.90
2018-05-06T21:59:22.672Z,1.60
2018-05-06T22:01:51.160Z,2.00
2018-05-06T22:04:19.578Z,1.90
2018-05-06T22:06:48.029Z,1.80
2018-05-06T22:09:16.505Z,1.90
2018-05-06T22:11:44.938Z,1.73
2018-05-06T22:14:13.366Z,1.90
2018-05-06T22:16:41.870Z,1.73
2018-05-06T22:19:10.293Z,1.80
2018-05-06T22:21:38.705Z,2.07
2018-05-06T22:24:07.182Z,2.00
2018-05-06T22:26:35.600Z,1.63
2018-05-06T22:29:04.016Z,2.40
2018-05-06T22:31:32.582Z,1.83
2018-05-06T22:34:00.944Z,1.93
2018-05-06T22:36:29.361Z,2.20
2018-05-06T22:38:57.816Z,2.30
2018-05-06T22:41:26.312Z,2.37
2018-05-06T22:43:54.676Z,2.20
2018-05-06T22:46:23.136Z,2.30
2018-05-06T22:48:51.553Z,1.93
2018-05-06T22:51:19.971Z,2.40
2018-05-06T22:53:48.440Z,2.00
2018-05-06T22:56:16.868Z,1.70
2018-05-06T22:58:45.285Z,1.90
2018-05-06T23:01:13.751Z,1.77
2018-05-06T23:03:42.168Z,2.00
2018-05-06T23:06:10.594Z,1.93
2018-05-06T23:08:39.057Z,2.00
2018-05-06T23:11:07.568Z,2.30
2018-05-06T23:13:35.932Z,2.20
2018-05-06T23:16:04.452Z,1.87
2018-05-06T23:18:32.874Z,1.90
2018-05-06T23:21:01.321Z,1.80
2018-05-06T23:23:29.786Z,2.10
2018-05-06T23:25:58.213Z,2.20
2018-05-06T23:28:26.626Z,2.30
2018-05-06T23:30:55.077Z,1.90
2018-05-06T23:33:23.482Z,2.00
2018-05-06T23:35:51.912Z,2.10
2018-05-06T23:38:20.385Z,2.03
2018-05-06T23:40:48.813Z,1.87
2018-05-06T23:43:17.284Z,1.97
2018-05-06T23:45:45.714Z,2.00
2018-05-06T23:48:14.137Z,2.10
2018-05-06T23:50:42.548Z,2.03
2018-05-06T23:53:11.022Z,2.20
2018-05-06T23:55:39.516Z,2.20
2018-05-06T23:58:07.946Z,2.10
